Observations

83.1 °F / 28.4 °C
S at 5 MPH
84%
77.9°F / 25.5 °C
29.89" (1012 mb)
10 mile(s)
partly cloudy
2020.09.20 2320 UTC

Observations

Surface


Raw METARs

2020/09/20 23:20
PKWA 202320Z AUTO 18004KT 10SM SCT013 28/26 A2989 RMK AO2 T02840255

Translated METAR

Kwajalein, Bucholz AAF, Kwajalein KMR ATOL Airport, Marshall Islands (PKWA) 08-43N 167-44E 2M
Sep 20, 2020 - 07:20 PM EDT / 2020.09.20 2320 UTC
Wind: from the S (180 degrees) at 5 MPH (4 KT):0
Visibility: 10 mile(s):0
Sky conditions: partly cloudy
Temperature: 83.1 F (28.4 C)
Dew Point: 77.9 F (25.5 C)
Relative Humidity: 84%
Pressure (altimeter): 29.89 in. Hg (1012 hPa)
ob: PKWA 202320Z AUTO 18004KT 10SM SCT013 28/26 A2989 RMK AO2 T02840255
cycle: 23



Upper Air


Latest Skew-T

Skew T Diagram

Latest Data File